Time;durP1;ratioP1;P1;durP2;ratioP2;P2;SDS_P1;SDS_P2;PMS_P1;PMS_P2;Temp;Humidity;BMP_temperature;BMP_pressure;BME280_temperature;BME280_humidity;BME280_pressure;Samples;Min_cycle;Max_cycle;Signal;HPM_P1;HPM_P2
2023/06/22 00:00:08;;;;;;;4.90;4.33;;;20.80;99.90;;;;;;5015613;28;20638;-70
2023/06/22 00:02:34;;;;;;;4.17;3.77;;;20.90;99.90;;;;;;5046755;27;21305;-69
2023/06/22 00:05:01;;;;;;;7.80;4.60;;;20.90;99.90;;;;;;5075794;27;21224;-69
2023/06/22 00:07:28;;;;;;;6.20;3.70;;;20.80;99.90;;;;;;5031893;28;21312;-69
2023/06/22 00:09:55;;;;;;;4.60;4.10;;;20.80;99.90;;;;;;5044422;27;21235;-69
2023/06/22 00:12:23;;;;;;;5.70;4.20;;;20.90;99.90;;;;;;5027903;28;20658;-69
2023/06/22 00:14:50;;;;;;;4.53;3.40;;;21.00;99.90;;;;;;5046147;27;20626;-69
2023/06/22 00:17:16;;;;;;;10.17;4.60;;;21.00;99.90;;;;;;5059833;27;20659;-69
2023/06/22 00:19:43;;;;;;;5.57;5.07;;;21.10;99.90;;;;;;5049051;27;20628;-70
2023/06/22 00:22:10;;;;;;;5.50;4.50;;;21.00;99.90;;;;;;5039618;27;20653;-69
2023/06/22 00:24:37;;;;;;;4.50;3.87;;;20.90;99.90;;;;;;5081415;27;20673;-69
2023/06/22 00:27:05;;;;;;;6.40;4.07;;;20.90;99.90;;;;;;5070838;27;20651;-69
2023/06/22 00:29:33;;;;;;;5.30;4.80;;;20.90;99.90;;;;;;5074776;27;20615;-69
2023/06/22 00:31:59;;;;;;;5.20;4.10;;;20.80;99.90;;;;;;5026717;28;20683;-69
2023/06/22 00:34:26;;;;;;;5.80;5.27;;;20.80;99.90;;;;;;5057640;27;20622;-70
2023/06/22 00:36:53;;;;;;;4.50;3.87;;;20.80;99.90;;;;;;5071299;27;20647;-70
2023/06/22 00:39:20;;;;;;;5.67;4.47;;;20.90;99.90;;;;;;5036999;28;20625;-69
2023/06/22 00:41:46;;;;;;;6.87;4.53;;;20.90;99.90;;;;;;5046472;27;20666;-69
2023/06/22 00:44:13;;;;;;;4.73;4.23;;;21.00;99.90;;;;;;5030225;28;20669;-69
2023/06/22 00:46:41;;;;;;;7.03;4.40;;;20.90;99.90;;;;;;5064167;27;20654;-69
2023/06/22 00:49:08;;;;;;;4.67;4.13;;;20.90;99.90;;;;;;5080825;27;20630;-69
2023/06/22 00:51:36;;;;;;;4.50;3.90;;;21.00;99.90;;;;;;5075272;27;20656;-69
2023/06/22 00:54:03;;;;;;;8.20;5.50;;;20.90;99.90;;;;;;5028344;27;20619;-69
2023/06/22 00:56:30;;;;;;;7.47;5.57;;;20.90;99.90;;;;;;5055020;27;20653;-69
2023/06/22 00:58:59;;;;;;;4.63;4.20;;;20.90;99.90;;;;;;5077861;27;20632;-70
2023/06/22 01:01:26;;;;;;;4.47;4.07;;;21.00;99.90;;;;;;5033876;28;20662;-69
2023/06/22 01:03:57;;;;;;;6.30;5.03;;;20.90;99.90;;;;;;5051929;27;20703;-69
2023/06/22 01:06:31;;;;;;;5.93;4.50;;;20.60;99.90;;;;;;5049984;27;20759;-69
2023/06/22 01:09:07;;;;;;;3.67;3.33;;;20.30;99.90;;;;;;5045845;27;20619;-70
2023/06/22 01:11:41;;;;;;;5.70;3.67;;;20.20;99.90;;;;;;5038385;27;20656;-69
2023/06/22 01:14:16;;;;;;;3.80;3.50;;;20.30;99.90;;;;;;5019616;28;20627;-69
2023/06/22 01:16:45;;;;;;;6.13;4.17;;;20.10;99.90;;;;;;5042373;28;20654;-70
2023/06/22 01:19:29;;;;;;;4.97;4.13;;;20.10;99.90;;;;;;5044577;27;21032;-69
2023/06/22 01:21:57;;;;;;;5.30;4.80;;;20.40;99.90;;;;;;5046715;27;20742;-69
2023/06/22 01:24:28;;;;;;;6.73;4.13;;;20.50;99.90;;;;;;5060023;27;20670;-70
2023/06/22 01:27:07;;;;;;;4.27;3.83;;;20.10;99.90;;;;;;5049547;27;20655;-69
2023/06/22 01:29:38;;;;;;;3.90;3.60;;;19.90;99.90;;;;;;5057084;27;20726;-69
2023/06/22 01:32:07;;;;;;;5.07;4.43;;;20.10;99.90;;;;;;5036491;27;20655;-69
2023/06/22 01:34:36;;;;;;;6.57;4.40;;;20.20;99.90;;;;;;5038274;28;20664;-69
2023/06/22 01:37:04;;;;;;;5.50;4.67;;;20.00;99.90;;;;;;5029417;27;20649;-69
2023/06/22 01:39:32;;;;;;;4.23;3.83;;;19.70;99.90;;;;;;5035938;27;20623;-69
2023/06/22 01:42:00;;;;;;;6.40;4.60;;;19.70;99.90;;;;;;5031698;28;20646;-69
2023/06/22 01:44:29;;;;;;;4.77;4.13;;;20.00;99.90;;;;;;5036032;28;21010;-69
2023/06/22 01:47:00;;;;;;;4.53;4.10;;;20.00;99.90;;;;;;5033252;27;20675;-69
2023/06/22 01:49:29;;;;;;;4.00;3.30;;;19.70;99.90;;;;;;5021220;28;20620;-70
2023/06/22 01:51:57;;;;;;;4.27;3.53;;;19.50;99.90;;;;;;5034504;28;21064;-69
2023/06/22 01:54:24;;;;;;;3.77;3.47;;;19.60;99.90;;;;;;5021175;27;20666;-69
2023/06/22 01:56:52;;;;;;;5.17;4.63;;;19.80;99.90;;;;;;5028277;28;20665;-70
2023/06/22 01:59:26;;;;;;;5.07;4.30;;;19.90;99.90;;;;;;5073532;27;20624;-69
2023/06/22 02:02:02;;;;;;;4.90;4.33;;;19.70;99.90;;;;;;5025839;28;20642;-69
2023/06/22 02:04:36;;;;;;;4.50;3.37;;;19.50;99.90;;;;;;5038557;27;20671;-69
2023/06/22 02:07:11;;;;;;;4.73;4.20;;;19.60;99.90;;;;;;5047004;27;20650;-69
2023/06/22 02:09:43;;;;;;;7.77;4.47;;;19.50;99.90;;;;;;5044012;27;20642;-70
2023/06/22 02:12:12;;;;;;;5.40;4.77;;;19.30;99.90;;;;;;5047863;27;20655;-69
2023/06/22 02:14:40;;;;;;;4.50;4.07;;;19.20;99.90;;;;;;5054921;27;20619;-70
2023/06/22 02:17:10;;;;;;;4.23;3.80;;;19.20;99.90;;;;;;5058989;27;21051;-70
2023/06/22 02:19:37;;;;;;;4.67;4.17;;;19.20;99.90;;;;;;5059078;27;21025;-69
2023/06/22 02:22:05;;;;;;;4.90;4.40;;;19.30;99.90;;;;;;5055733;27;21098;-69
2023/06/22 02:24:33;;;;;;;4.73;4.03;;;19.50;99.90;;;;;;5081708;27;20689;-69
2023/06/22 02:27:02;;;;;;;5.77;4.60;;;19.60;99.90;;;;;;5090344;27;20745;-69
2023/06/22 02:29:30;;;;;;;4.40;4.00;;;19.30;99.90;;;;;;5058868;27;20634;-70
2023/06/22 02:31:57;;;;;;;5.07;4.67;;;19.30;99.90;;;;;;5078996;27;20663;-69
2023/06/22 02:34:25;;;;;;;5.53;5.03;;;19.50;99.90;;;;;;5033183;28;21073;-69
2023/06/22 02:36:53;;;;;;;7.53;6.83;;;19.60;99.90;;;;;;5078858;27;20747;-69
2023/06/22 02:39:22;;;;;;;5.17;4.67;;;19.50;99.90;;;;;;5072795;27;21215;-69
2023/06/22 02:41:49;;;;;;;4.90;4.37;;;19.30;99.90;;;;;;5047974;27;20649;-69
2023/06/22 02:44:17;;;;;;;5.10;4.70;;;19.30;99.90;;;;;;5052418;27;20700;-69
2023/06/22 02:46:45;;;;;;;5.80;5.07;;;19.50;99.90;;;;;;5069405;27;20653;-68
2023/06/22 02:49:13;;;;;;;6.90;5.60;;;19.60;99.90;;;;;;5067074;28;20647;-69
2023/06/22 02:51:45;;;;;;;5.03;4.50;;;19.70;99.90;;;;;;5033135;28;20661;-69
2023/06/22 02:54:13;;;;;;;5.87;4.90;;;19.80;99.90;;;;;;5047678;28;21269;-69
2023/06/22 02:56:43;;;;;;;7.40;4.40;;;19.60;99.90;;;;;;5041772;28;20679;-69
2023/06/22 02:59:11;;;;;;;6.40;4.67;;;19.40;99.90;;;;;;5065683;28;20623;-69
2023/06/22 03:01:40;;;;;;;8.37;5.67;;;19.30;99.90;;;;;;5038472;28;20663;-69
2023/06/22 03:04:08;;;;;;;5.10;4.27;;;19.30;99.90;;;;;;5058094;28;20745;-69
2023/06/22 03:06:35;;;;;;;6.10;4.50;;;19.40;99.90;;;;;;5076358;27;20639;-69
2023/06/22 03:09:05;;;;;;;5.23;4.73;;;19.40;99.90;;;;;;5070782;27;20618;-69
2023/06/22 03:11:34;;;;;;;6.47;5.87;;;19.30;99.90;;;;;;5038970;28;21215;-69
2023/06/22 03:14:02;;;;;;;5.63;5.00;;;19.10;99.90;;;;;;5075024;27;20718;-69
2023/06/22 03:16:31;;;;;;;4.70;4.30;;;19.00;99.90;;;;;;5030840;28;20650;-69
2023/06/22 03:18:59;;;;;;;7.50;5.20;;;18.90;99.90;;;;;;5042183;27;20987;-69
2023/06/22 03:21:29;;;;;;;6.17;5.40;;;18.90;99.90;;;;;;5058315;27;20655;-70
2023/06/22 03:23:56;;;;;;;7.10;5.43;;;18.90;99.90;;;;;;5044810;27;20669;-69
2023/06/22 03:26:26;;;;;;;5.43;4.93;;;18.80;99.90;;;;;;5074658;27;21289;-69
2023/06/22 03:28:53;;;;;;;5.13;4.63;;;18.80;99.90;;;;;;5095640;27;20615;-69
2023/06/22 03:31:21;;;;;;;6.07;5.20;;;18.70;99.90;;;;;;5053294;27;22671;-69
2023/06/22 03:33:48;;;;;;;5.80;5.30;;;18.80;99.90;;;;;;5062431;27;20730;-69
2023/06/22 03:36:16;;;;;;;5.63;5.13;;;18.80;99.90;;;;;;5080596;27;20769;-69
2023/06/22 03:38:43;;;;;;;6.83;5.47;;;18.80;99.90;;;;;;5050425;27;20626;-69
2023/06/22 03:41:09;;;;;;;5.40;4.90;;;18.90;99.90;;;;;;5081208;27;20740;-69
2023/06/22 03:43:38;;;;;;;6.27;4.83;;;18.90;99.90;;;;;;5025296;28;21500;-69
2023/06/22 03:46:04;;;;;;;5.77;5.17;;;18.80;99.90;;;;;;5033620;28;20750;-69
2023/06/22 03:48:31;;;;;;;5.90;5.00;;;18.80;99.90;;;;;;5048063;27;20640;-69
2023/06/22 03:50:59;;;;;;;5.00;4.50;;;18.80;99.90;;;;;;5067581;27;20706;-69
2023/06/22 03:53:26;;;;;;;6.60;5.43;;;18.70;99.90;;;;;;5054684;27;20629;-69
2023/06/22 03:55:54;;;;;;;7.43;6.27;;;18.80;99.90;;;;;;5075700;27;20663;-69
2023/06/22 03:58:22;;;;;;;9.87;6.27;;;18.90;99.90;;;;;;5030133;27;20697;-69
2023/06/22 04:00:51;;;;;;;6.10;5.13;;;18.90;99.90;;;;;;5030743;28;20663;-69
2023/06/22 04:03:19;;;;;;;7.20;5.57;;;19.00;99.90;;;;;;5074565;27;20644;-69
2023/06/22 04:05:46;;;;;;;5.27;4.63;;;19.00;99.90;;;;;;5064828;27;20937;-69
2023/06/22 04:08:13;;;;;;;6.40;5.90;;;19.00;99.90;;;;;;5060048;27;20627;-69
2023/06/22 04:10:40;;;;;;;6.07;5.47;;;19.00;99.90;;;;;;5041084;27;20781;-69
2023/06/22 04:13:08;;;;;;;5.20;4.77;;;19.00;99.90;;;;;;5050962;27;20621;-70
2023/06/22 04:15:34;;;;;;;6.83;5.17;;;19.00;99.90;;;;;;5075945;27;20659;-69
2023/06/22 04:18:03;;;;;;;6.20;5.10;;;19.00;99.90;;;;;;5050885;27;20626;-69
2023/06/22 04:20:30;;;;;;;8.00;4.33;;;19.20;99.90;;;;;;5043171;27;20668;-69
2023/06/22 04:22:57;;;;;;;6.80;4.63;;;19.30;99.90;;;;;;5079322;27;20619;-69
2023/06/22 04:25:23;;;;;;;5.77;5.27;;;19.20;99.90;;;;;;5081684;27;20679;-69
2023/06/22 04:27:50;;;;;;;5.37;4.80;;;19.20;99.90;;;;;;5037028;28;20629;-69
2023/06/22 04:30:20;;;;;;;6.60;5.50;;;19.30;99.90;;;;;;5026797;27;20742;-69
2023/06/22 04:32:57;;;;;;;4.87;4.40;;;19.30;99.90;;;;;;5060923;27;20733;-69
2023/06/22 04:35:29;;;;;;;8.03;6.00;;;19.40;99.90;;;;;;5067180;27;20646;-69
2023/06/22 04:38:00;;;;;;;5.70;4.83;;;19.50;99.90;;;;;;5086353;27;20638;-68
2023/06/22 04:40:27;;;;;;;5.50;4.50;;;19.50;99.90;;;;;;5040437;27;21215;-69
2023/06/22 04:42:54;;;;;;;6.70;5.27;;;19.50;99.90;;;;;;5062589;27;20682;-69
2023/06/22 04:45:21;;;;;;;5.53;4.47;;;19.50;99.90;;;;;;5043347;27;20766;-69
2023/06/22 04:47:48;;;;;;;6.73;4.90;;;19.50;99.90;;;;;;5080147;27;20616;-68
2023/06/22 04:50:17;;;;;;;5.53;5.00;;;19.50;99.90;;;;;;5069475;27;20620;-69
2023/06/22 04:52:45;;;;;;;5.63;5.23;;;19.60;99.90;;;;;;5036906;27;20627;-68
2023/06/22 04:55:12;;;;;;;4.83;4.40;;;19.70;99.90;;;;;;5047844;27;21256;-69
2023/06/22 04:57:39;;;;;;;4.80;4.10;;;19.80;99.90;;;;;;5040661;27;21279;-69
2023/06/22 05:00:16;;;;;;;3.90;3.53;;;19.90;99.90;;;;;;5022194;27;21214;-68
2023/06/22 05:02:43;;;;;;;6.47;3.67;;;20.00;99.90;;;;;;5069942;27;21221;-68
2023/06/22 05:05:13;;;;;;;3.30;3.00;;;20.10;99.90;;;;;;5080209;27;20675;-68
2023/06/22 05:07:42;;;;;;;5.37;3.43;;;20.20;99.90;;;;;;5082099;27;20672;-69
2023/06/22 05:10:11;;;;;;;4.80;4.30;;;20.30;99.90;;;;;;5053587;27;20627;-68
2023/06/22 05:12:38;;;;;;;4.20;3.57;;;20.40;99.90;;;;;;5071123;27;20654;-68
2023/06/22 05:15:06;;;;;;;5.13;3.90;;;20.60;99.90;;;;;;5078864;27;21302;-68
2023/06/22 05:17:33;;;;;;;4.87;4.07;;;20.80;99.90;;;;;;5075753;27;20630;-69
2023/06/22 05:20:00;;;;;;;4.37;3.93;;;20.80;99.90;;;;;;5066581;27;20631;-68
2023/06/22 05:22:27;;;;;;;4.10;3.70;;;20.80;99.90;;;;;;5042423;27;21253;-68
2023/06/22 05:24:53;;;;;;;4.47;3.93;;;20.80;99.90;;;;;;5040942;28;20670;-68
2023/06/22 05:27:21;;;;;;;6.23;3.80;;;21.00;99.90;;;;;;5056722;27;20653;-68
2023/06/22 05:29:48;;;;;;;5.17;4.30;;;21.10;99.90;;;;;;5032217;28;20619;-69
2023/06/22 05:32:15;;;;;;;4.43;3.70;;;21.20;99.90;;;;;;5046890;27;20673;-68
2023/06/22 05:34:42;;;;;;;5.00;3.90;;;21.20;99.90;;;;;;5093776;27;20626;-68
2023/06/22 05:37:09;;;;;;;4.57;4.10;;;21.30;99.90;;;;;;5035470;27;20649;-68
2023/06/22 05:39:37;;;;;;;5.10;3.77;;;21.30;99.90;;;;;;5031467;27;20623;-68
2023/06/22 05:42:05;;;;;;;8.00;4.17;;;21.50;99.90;;;;;;5019992;27;20665;-68
2023/06/22 05:44:34;;;;;;;4.57;3.90;;;21.60;99.90;;;;;;5042557;27;21022;-67
2023/06/22 05:47:01;;;;;;;4.63;4.10;;;21.80;99.90;;;;;;5079300;27;20646;-67
2023/06/22 05:49:29;;;;;;;3.50;3.20;;;21.70;99.90;;;;;;5042417;27;20620;-67
2023/06/22 05:51:57;;;;;;;5.80;4.20;;;21.80;99.90;;;;;;5048639;27;20654;-67
2023/06/22 05:54:23;;;;;;;4.40;3.83;;;21.90;99.90;;;;;;5071328;27;20684;-67
2023/06/22 05:56:50;;;;;;;4.23;3.50;;;22.00;99.90;;;;;;5012646;28;20659;-69
2023/06/22 05:59:17;;;;;;;5.67;3.53;;;22.10;99.90;;;;;;5029425;28;20728;-68
2023/06/22 06:01:49;;;;;;;4.27;3.30;;;22.20;99.90;;;;;;5025449;28;20669;-68
2023/06/22 06:04:16;;;;;;;9.83;4.13;;;22.10;99.90;;;;;;5037153;27;20694;-68
2023/06/22 06:06:43;;;;;;;3.70;2.90;;;22.20;99.90;;;;;;5030094;27;20869;-68
2023/06/22 06:09:11;;;;;;;4.00;3.23;;;22.20;99.90;;;;;;5058385;27;20631;-68
2023/06/22 06:11:38;;;;;;;4.33;3.70;;;22.20;99.90;;;;;;5026368;28;20659;-68
2023/06/22 06:14:05;;;;;;;3.37;2.80;;;22.20;99.90;;;;;;5069611;27;20635;-68
2023/06/22 06:16:32;;;;;;;3.60;3.30;;;22.10;99.90;;;;;;5027471;28;20659;-68
2023/06/22 06:19:00;;;;;;;6.50;3.20;;;22.10;99.90;;;;;;5055255;27;20628;-68
2023/06/22 06:21:27;;;;;;;5.10;3.50;;;22.20;99.90;;;;;;5030304;28;20665;-68
2023/06/22 06:23:54;;;;;;;4.43;3.57;;;22.20;99.90;;;;;;5078630;27;20627;-68
2023/06/22 06:26:29;;;;;;;3.27;3.03;;;22.20;99.90;;;;;;5011938;28;21233;-68
2023/06/22 06:28:57;;;;;;;4.77;3.27;;;22.40;99.90;;;;;;5026214;28;21350;-68
2023/06/22 06:31:23;;;;;;;2.93;2.63;;;22.40;99.90;;;;;;5025664;28;20666;-68
2023/06/22 06:33:50;;;;;;;3.13;2.77;;;22.50;99.90;;;;;;5034064;28;20637;-68
2023/06/22 06:36:18;;;;;;;5.33;3.23;;;22.50;99.90;;;;;;5071664;27;20663;-68
2023/06/22 06:38:47;;;;;;;3.70;3.17;;;22.60;99.90;;;;;;5048596;27;21215;-68
2023/06/22 06:41:14;;;;;;;3.63;3.10;;;22.70;99.90;;;;;;5031586;28;20667;-68
2023/06/22 06:43:42;;;;;;;3.03;2.80;;;22.90;99.70;;;;;;5050448;28;20633;-68
2023/06/22 06:46:09;;;;;;;4.10;3.10;;;22.90;98.80;;;;;;5023767;28;20672;-68
2023/06/22 06:48:36;;;;;;;3.77;3.17;;;22.90;98.60;;;;;;5036056;28;20974;-68
2023/06/22 06:51:02;;;;;;;3.83;3.33;;;23.10;98.70;;;;;;5036345;28;20652;-68
2023/06/22 06:53:30;;;;;;;3.77;3.37;;;23.20;98.60;;;;;;5038912;28;20783;-68
2023/06/22 06:55:57;;;;;;;2.97;2.67;;;23.10;98.00;;;;;;5049082;28;20651;-68
2023/06/22 06:58:24;;;;;;;3.30;2.73;;;23.30;98.10;;;;;;5044806;27;20630;-68
2023/06/22 07:00:51;;;;;;;3.20;2.90;;;23.40;97.30;;;;;;5019386;28;20647;-68
2023/06/22 07:03:18;;;;;;;3.63;3.00;;;23.50;97.70;;;;;;5029692;28;20674;-68
2023/06/22 07:05:44;;;;;;;4.53;3.43;;;23.70;97.40;;;;;;5023431;28;20687;-68
2023/06/22 07:08:11;;;;;;;3.17;2.87;;;23.70;97.20;;;;;;5034713;28;21042;-68
2023/06/22 07:10:39;;;;;;;3.83;2.47;;;23.80;97.00;;;;;;5048716;28;20677;-67
2023/06/22 07:13:06;;;;;;;3.27;2.50;;;23.90;97.70;;;;;;5083241;28;20817;-68
2023/06/22 07:15:33;;;;;;;3.60;3.30;;;23.90;96.90;;;;;;5085563;28;21015;-67
2023/06/22 07:18:00;;;;;;;3.27;2.97;;;24.10;96.40;;;;;;5074972;28;20634;-68
2023/06/22 07:20:26;;;;;;;2.90;2.57;;;24.20;95.90;;;;;;5038880;28;21207;-68
2023/06/22 07:22:54;;;;;;;3.20;2.90;;;24.20;95.70;;;;;;5102299;28;20629;-68
2023/06/22 07:25:20;;;;;;;2.80;2.50;;;24.20;96.00;;;;;;5033874;28;20751;-68
2023/06/22 07:27:59;;;;;;;2.77;2.57;;;24.40;95.30;;;;;;5033265;28;20639;-68
2023/06/22 07:30:26;;;;;;;2.63;2.40;;;24.50;95.10;;;;;;5041112;28;20666;-68
2023/06/22 07:32:53;;;;;;;3.63;2.57;;;24.50;95.50;;;;;;5072744;28;21058;-68
2023/06/22 07:35:20;;;;;;;2.73;2.50;;;24.60;94.90;;;;;;5108807;28;20646;-68
2023/06/22 07:37:47;;;;;;;3.17;2.27;;;24.70;95.10;;;;;;5062986;28;20634;-68
2023/06/22 07:40:14;;;;;;;3.97;2.17;;;24.80;94.90;;;;;;5042464;28;20630;-68
2023/06/22 07:42:41;;;;;;;2.83;2.40;;;24.90;94.90;;;;;;5035789;28;20629;-68
2023/06/22 07:45:09;;;;;;;3.20;2.90;;;24.90;95.20;;;;;;5059042;28;20674;-68
2023/06/22 07:47:36;;;;;;;2.77;2.43;;;25.00;95.30;;;;;;5076313;28;21257;-69
2023/06/22 07:50:04;;;;;;;3.70;3.40;;;25.20;94.10;;;;;;5031354;27;21008;-68
2023/06/22 07:52:31;;;;;;;3.37;2.30;;;25.30;94.40;;;;;;5039830;27;20624;-68
2023/06/22 07:54:58;;;;;;;3.13;2.77;;;25.40;93.60;;;;;;5061745;27;20631;-68
2023/06/22 07:57:31;;;;;;;3.50;3.20;;;25.50;93.50;;;;;;5045037;27;21208;-69
2023/06/22 07:59:58;;;;;;;4.13;2.90;;;25.60;93.40;;;;;;5059852;27;20624;-68
2023/06/22 08:02:27;;;;;;;3.60;3.00;;;25.70;93.30;;;;;;5055730;27;20767;-69
2023/06/22 08:04:53;;;;;;;4.23;3.20;;;25.80;93.00;;;;;;5071286;27;20632;-69
2023/06/22 08:07:20;;;;;;;2.70;2.50;;;25.90;93.20;;;;;;5105330;27;21258;-69
2023/06/22 08:09:48;;;;;;;6.40;2.97;;;26.10;92.30;;;;;;5050382;27;20656;-69
2023/06/22 08:12:15;;;;;;;3.30;3.00;;;26.10;92.20;;;;;;5063331;27;20665;-68
2023/06/22 08:14:44;;;;;;;5.30;2.70;;;26.00;92.50;;;;;;5024067;28;20631;-69
2023/06/22 08:17:10;;;;;;;2.60;2.40;;;26.00;93.30;;;;;;5016965;28;20997;-70
2023/06/22 08:19:41;;;;;;;3.20;2.90;;;26.10;91.60;;;;;;5036132;28;20636;-69
2023/06/22 08:22:08;;;;;;;3.00;2.80;;;26.20;91.60;;;;;;5070596;27;20695;-69
2023/06/22 08:24:34;;;;;;;3.53;3.13;;;26.30;91.90;;;;;;5056203;27;20630;-69
2023/06/22 08:27:02;;;;;;;3.37;2.60;;;26.30;91.90;;;;;;5058060;27;20674;-69
2023/06/22 08:29:28;;;;;;;3.40;3.10;;;26.30;91.50;;;;;;5036831;28;21190;-70
2023/06/22 08:31:55;;;;;;;3.93;3.13;;;26.40;92.00;;;;;;5072480;27;20840;-69
2023/06/22 08:34:25;;;;;;;5.20;3.43;;;26.50;91.50;;;;;;5027781;27;20625;-69
2023/06/22 08:36:53;;;;;;;4.10;3.70;;;26.60;91.60;;;;;;5048473;27;20650;-69
2023/06/22 08:39:20;;;;;;;5.27;3.20;;;26.60;90.50;;;;;;5037863;27;20966;-68
2023/06/22 08:41:47;;;;;;;4.07;3.63;;;26.50;90.20;;;;;;5052486;27;20751;-69
2023/06/22 08:44:14;;;;;;;4.03;3.00;;;26.50;91.30;;;;;;5032284;28;20637;-69
2023/06/22 08:46:41;;;;;;;3.27;2.97;;;26.60;91.80;;;;;;5015572;28;20668;-69
2023/06/22 08:49:09;;;;;;;3.67;3.10;;;26.70;90.70;;;;;;5036555;28;20635;-69
2023/06/22 08:51:36;;;;;;;4.40;3.50;;;26.70;90.10;;;;;;5041574;27;21011;-69
2023/06/22 08:54:04;;;;;;;4.03;3.60;;;26.90;90.40;;;;;;5037052;28;20634;-69
2023/06/22 08:56:31;;;;;;;3.30;3.00;;;27.20;88.70;;;;;;5071231;27;21107;-68
2023/06/22 08:58:58;;;;;;;3.20;2.90;;;27.20;90.00;;;;;;5053791;27;20639;-69
2023/06/22 09:01:25;;;;;;;4.13;3.33;;;27.20;89.90;;;;;;5026471;27;20652;-69
2023/06/22 09:03:57;;;;;;;3.00;2.70;;;27.40;88.70;;;;;;5053803;27;20626;-69
2023/06/22 09:06:24;;;;;;;4.53;4.13;;;27.40;88.70;;;;;;5063390;27;20673;-68
2023/06/22 09:08:51;;;;;;;4.47;3.13;;;27.10;89.70;;;;;;5037585;27;20855;-68
2023/06/22 09:11:19;;;;;;;5.40;3.60;;;27.00;89.10;;;;;;5054841;27;20654;-69
2023/06/22 09:13:46;;;;;;;2.70;2.50;;;27.20;90.00;;;;;;5029948;28;20663;-69
2023/06/22 09:16:13;;;;;;;5.90;3.53;;;27.20;88.00;;;;;;5057420;27;21413;-69
2023/06/22 09:18:40;;;;;;;4.17;2.87;;;27.30;88.40;;;;;;5021128;28;21036;-69
2023/06/22 09:21:07;;;;;;;5.00;3.47;;;27.30;89.10;;;;;;5078555;27;20699;-69
2023/06/22 09:23:34;;;;;;;4.53;3.83;;;27.40;89.10;;;;;;5047135;27;20629;-69
2023/06/22 09:26:01;;;;;;;3.47;2.93;;;27.60;89.10;;;;;;5036786;28;20662;-69
2023/06/22 09:28:29;;;;;;;4.40;4.00;;;27.60;88.90;;;;;;5034189;27;20622;-69
2023/06/22 09:30:58;;;;;;;6.43;3.90;;;27.60;88.50;;;;;;5063978;27;20688;-68
2023/06/22 09:33:24;;;;;;;3.93;3.53;;;27.60;89.50;;;;;;5033402;27;21175;-69
2023/06/22 09:35:51;;;;;;;3.37;3.07;;;27.80;89.90;;;;;;5030547;27;20651;-69
2023/06/22 09:38:18;;;;;;;3.30;3.03;;;28.00;88.60;;;;;;5046485;27;20680;-69
2023/06/22 09:40:45;;;;;;;3.93;3.63;;;28.10;88.70;;;;;;5037711;27;20645;-69
2023/06/22 09:43:12;;;;;;;4.30;3.93;;;28.40;86.70;;;;;;5039230;28;20626;-69
2023/06/22 09:45:40;;;;;;;4.40;4.03;;;28.50;86.20;;;;;;5083152;27;20682;-69
2023/06/22 09:48:07;;;;;;;4.00;3.60;;;28.50;86.90;;;;;;5092091;27;20622;-69
2023/06/22 09:50:34;;;;;;;6.27;3.60;;;28.70;86.40;;;;;;5084351;27;20654;-69
2023/06/22 09:53:01;;;;;;;4.13;3.63;;;28.90;85.00;;;;;;5050008;27;20709;-69
2023/06/22 09:55:28;;;;;;;3.90;3.33;;;29.00;84.00;;;;;;5076601;27;20645;-69
2023/06/22 09:57:55;;;;;;;4.40;4.00;;;28.80;85.60;;;;;;5080236;27;20632;-69
2023/06/22 10:00:22;;;;;;;3.83;3.53;;;29.00;85.90;;;;;;5031764;27;20628;-69
2023/06/22 10:02:50;;;;;;;4.67;3.50;;;29.30;84.30;;;;;;5040461;27;20642;-69
2023/06/22 10:05:17;;;;;;;4.13;3.73;;;29.40;82.90;;;;;;5068877;27;20624;-70
2023/06/22 10:07:44;;;;;;;3.50;3.27;;;29.40;82.20;;;;;;5078155;27;20678;-70
2023/06/22 10:10:11;;;;;;;6.03;3.70;;;29.40;81.20;;;;;;5083165;27;20680;-71
2023/06/22 10:12:42;;;;;;;3.50;3.20;;;29.20;82.40;;;;;;5070001;27;20621;-71
2023/06/22 10:15:10;;;;;;;4.17;3.13;;;29.20;80.90;;;;;;5041038;27;21314;-71
2023/06/22 10:17:37;;;;;;;4.17;3.73;;;29.20;81.40;;;;;;5069622;27;20624;-70
2023/06/22 10:20:11;;;;;;;6.10;3.93;;;29.20;80.40;;;;;;5078268;27;20626;-71
2023/06/22 10:22:38;;;;;;;4.50;4.10;;;29.30;81.50;;;;;;5071938;27;20665;-71
2023/06/22 10:25:10;;;;;;;4.20;3.80;;;29.40;80.10;;;;;;5108807;27;20631;-71
2023/06/22 10:27:39;;;;;;;4.10;3.70;;;29.40;80.40;;;;;;5090291;27;20661;-70
2023/06/22 10:30:07;;;;;;;5.37;4.87;;;29.50;80.40;;;;;;5072043;27;20620;-70
2023/06/22 10:32:34;;;;;;;3.90;3.60;;;29.70;79.80;;;;;;5069537;27;20645;-70
2023/06/22 10:35:02;;;;;;;3.87;3.47;;;29.80;79.10;;;;;;5078990;27;20722;-70
2023/06/22 10:37:30;;;;;;;4.37;3.87;;;29.80;78.40;;;;;;5091618;27;20656;-70
2023/06/22 10:39:57;;;;;;;3.37;3.17;;;30.00;78.60;;;;;;5069446;27;20627;-71
2023/06/22 10:42:23;;;;;;;3.60;3.00;;;30.10;78.70;;;;;;5028775;27;20663;-71
2023/06/22 10:44:50;;;;;;;5.60;3.40;;;30.10;78.30;;;;;;5094982;27;20636;-70
2023/06/22 10:47:17;;;;;;;4.67;3.30;;;30.20;80.90;;;;;;5036411;28;20681;-71
2023/06/22 10:49:44;;;;;;;3.53;3.23;;;30.40;79.00;;;;;;5091069;28;20622;-70
2023/06/22 10:52:11;;;;;;;4.10;3.10;;;30.30;77.40;;;;;;5077651;28;20646;-70
2023/06/22 10:54:39;;;;;;;3.30;3.00;;;30.20;78.60;;;;;;5069469;28;20747;-69
2023/06/22 10:57:06;;;;;;;5.03;3.40;;;30.20;78.70;;;;;;5083735;28;20647;-70
2023/06/22 10:59:33;;;;;;;5.57;3.47;;;30.20;77.10;;;;;;5049564;27;20702;-69
2023/06/22 11:02:00;;;;;;;4.23;3.83;;;30.30;76.60;;;;;;5078441;28;20679;-69
2023/06/22 11:04:27;;;;;;;4.07;3.30;;;30.20;76.20;;;;;;5064406;28;20722;-69
2023/06/22 11:06:53;;;;;;;4.63;3.67;;;30.20;77.90;;;;;;5089216;28;20673;-70
2023/06/22 11:09:21;;;;;;;5.57;4.00;;;30.10;77.30;;;;;;5072581;28;20626;-69
2023/06/22 11:11:50;;;;;;;4.40;3.20;;;30.00;78.90;;;;;;5079329;28;20647;-70
2023/06/22 11:14:17;;;;;;;3.20;2.77;;;29.90;78.30;;;;;;5059223;28;21191;-70
2023/06/22 11:16:44;;;;;;;4.70;3.73;;;30.10;75.90;;;;;;5073854;28;21332;-69
2023/06/22 11:19:10;;;;;;;4.43;4.03;;;29.80;75.80;;;;;;5040101;28;20636;-69
2023/06/22 11:21:37;;;;;;;3.97;2.90;;;29.70;77.00;;;;;;5051943;28;20646;-69
2023/06/22 11:24:04;;;;;;;4.37;3.97;;;29.70;78.20;;;;;;5071986;28;20682;-69
2023/06/22 11:26:31;;;;;;;4.23;3.83;;;29.70;77.20;;;;;;5036650;27;20703;-69
2023/06/22 11:28:59;;;;;;;4.00;3.70;;;29.70;77.20;;;;;;5023189;28;20743;-68
2023/06/22 11:31:26;;;;;;;4.70;4.27;;;29.80;76.50;;;;;;5022871;28;20660;-69
2023/06/22 11:33:53;;;;;;;3.87;3.30;;;29.80;79.30;;;;;;5020065;28;20968;-69
2023/06/22 11:36:20;;;;;;;5.30;3.50;;;29.90;79.10;;;;;;5020072;28;20663;-68
2023/06/22 11:38:47;;;;;;;5.47;4.00;;;29.90;77.60;;;;;;5020292;28;20650;-68
2023/06/22 11:41:14;;;;;;;3.53;3.20;;;30.30;78.20;;;;;;5023894;28;20652;-68
2023/06/22 11:43:40;;;;;;;5.50;3.90;;;30.70;76.70;;;;;;5027167;28;20631;-69
2023/06/22 11:46:09;;;;;;;5.70;3.70;;;31.00;76.60;;;;;;5026869;27;20664;-69
2023/06/22 11:48:36;;;;;;;4.63;3.00;;;31.30;75.50;;;;;;5024516;28;20756;-69
2023/06/22 11:51:03;;;;;;;3.40;3.07;;;31.40;74.20;;;;;;5018888;28;20681;-69
2023/06/22 11:53:30;;;;;;;6.50;3.93;;;31.30;75.60;;;;;;5023445;28;20639;-69
2023/06/22 11:55:57;;;;;;;4.50;3.10;;;31.30;75.60;;;;;;5019932;28;20742;-69
2023/06/22 11:58:24;;;;;;;5.13;4.73;;;31.40;74.60;;;;;;5019446;28;20637;-69
2023/06/22 12:00:51;;;;;;;4.60;3.70;;;31.40;74.30;;;;;;5023134;28;20650;-68
2023/06/22 12:03:21;;;;;;;4.73;4.00;;;31.40;74.20;;;;;;5022150;28;20648;-69
2023/06/22 12:05:47;;;;;;;4.50;3.87;;;31.30;73.90;;;;;;5025533;28;20875;-68
2023/06/22 12:08:14;;;;;;;5.77;4.53;;;31.30;75.50;;;;;;5022485;28;20663;-69
2023/06/22 12:10:41;;;;;;;4.17;3.80;;;31.50;73.70;;;;;;5017185;27;21075;-69
2023/06/22 12:13:08;;;;;;;5.40;3.20;;;31.40;73.70;;;;;;5018009;27;20628;-68
2023/06/22 12:15:35;;;;;;;4.23;3.57;;;31.10;74.50;;;;;;5017346;28;20661;-69
2023/06/22 12:18:02;;;;;;;4.10;3.80;;;30.80;76.10;;;;;;5020090;28;20629;-66
2023/06/22 12:20:30;;;;;;;3.70;3.40;;;30.50;76.50;;;;;;5019858;27;20665;-70
2023/06/22 12:22:58;;;;;;;4.40;4.00;;;30.40;77.20;;;;;;5027063;28;21149;-69
2023/06/22 12:25:25;;;;;;;4.63;4.23;;;30.50;76.60;;;;;;5022977;28;20650;-69
2023/06/22 12:27:52;;;;;;;5.07;4.63;;;30.30;76.70;;;;;;5021180;28;20761;-69
2023/06/22 12:30:18;;;;;;;3.90;3.60;;;30.40;75.80;;;;;;5019874;28;20755;-69
2023/06/22 12:32:45;;;;;;;3.63;3.33;;;30.20;75.60;;;;;;5017893;28;20627;-69
2023/06/22 12:35:13;;;;;;;4.20;3.60;;;30.10;76.40;;;;;;5067450;27;21074;-69
2023/06/22 12:37:42;;;;;;;3.33;2.80;;;29.90;77.50;;;;;;5061725;27;20937;-68
2023/06/22 12:40:10;;;;;;;4.60;3.30;;;29.80;79.20;;;;;;5045907;27;20637;-69
2023/06/22 12:42:37;;;;;;;4.00;3.60;;;29.60;79.60;;;;;;5025021;27;20626;-69
2023/06/22 12:45:04;;;;;;;4.03;3.70;;;29.50;82.70;;;;;;5017678;28;20639;-69
2023/06/22 12:47:31;;;;;;;3.40;3.10;;;29.50;80.30;;;;;;5020109;28;20686;-68
2023/06/22 12:49:58;;;;;;;4.07;3.67;;;29.40;82.00;;;;;;5014780;28;20997;-68